sensor_id;sensor_type;location;lat;lon;timestamp;pressure;altitude;pressure_sealevel;temperature;humidity
37852;BME280;23691;52.486;4.650;2022-09-01T00:02:01;102350.13;;;18.20;63.52
37852;BME280;23691;52.486;4.650;2022-09-01T00:04:34;102351.16;;;18.19;63.54
37852;BME280;23691;52.486;4.650;2022-09-01T00:07:06;102343.22;;;18.17;63.86
37852;BME280;23691;52.486;4.650;2022-09-01T00:09:32;102334.59;;;18.14;63.66
37852;BME280;23691;52.486;4.650;2022-09-01T00:11:57;102336.13;;;18.16;63.98
37852;BME280;23691;52.486;4.650;2022-09-01T00:14:27;102334.06;;;18.18;64.02
37852;BME280;23691;52.486;4.650;2022-09-01T00:16:53;102334.91;;;18.19;63.97
37852;BME280;23691;52.486;4.650;2022-09-01T00:19:20;102331.53;;;18.17;64.02
37852;BME280;23691;52.486;4.650;2022-09-01T00:21:45;102331.19;;;18.20;64.02
37852;BME280;23691;52.486;4.650;2022-09-01T00:24:13;102329.31;;;18.20;63.60
37852;BME280;23691;52.486;4.650;2022-09-01T00:26:39;102330.34;;;18.19;63.80
37852;BME280;23691;52.486;4.650;2022-09-01T00:29:05;102325.09;;;18.18;63.80
37852;BME280;23691;52.486;4.650;2022-09-01T00:31:31;102330.50;;;18.18;63.94
37852;BME280;23691;52.486;4.650;2022-09-01T00:33:58;102330.88;;;18.15;64.22
37852;BME280;23691;52.486;4.650;2022-09-01T00:36:23;102328.31;;;18.13;64.29
37852;BME280;23691;52.486;4.650;2022-09-01T00:38:49;102327.84;;;18.10;64.45
37852;BME280;23691;52.486;4.650;2022-09-01T00:41:17;102325.16;;;18.10;64.39
37852;BME280;23691;52.486;4.650;2022-09-01T00:43:44;102323.50;;;18.00;64.51
37852;BME280;23691;52.486;4.650;2022-09-01T00:46:16;102311.88;;;17.92;64.76
37852;BME280;23691;52.486;4.650;2022-09-01T00:48:42;102315.13;;;17.87;64.84
37852;BME280;23691;52.486;4.650;2022-09-01T00:51:10;102311.22;;;17.81;65.30
37852;BME280;23691;52.486;4.650;2022-09-01T00:53:38;102309.56;;;17.80;65.32
37852;BME280;23691;52.486;4.650;2022-09-01T00:56:06;102308.34;;;17.83;65.57
37852;BME280;23691;52.486;4.650;2022-09-01T00:58:33;102301.06;;;17.84;65.22
37852;BME280;23691;52.486;4.650;2022-09-01T01:01:00;102310.72;;;17.86;65.68
37852;BME280;23691;52.486;4.650;2022-09-01T01:07:07;102308.31;;;17.91;65.17
37852;BME280;23691;52.486;4.650;2022-09-01T01:09:35;102306.63;;;17.90;65.13
37852;BME280;23691;52.486;4.650;2022-09-01T01:12:04;102299.34;;;17.91;65.15
37852;BME280;23691;52.486;4.650;2022-09-01T01:14:30;102300.19;;;17.91;65.45
37852;BME280;23691;52.486;4.650;2022-09-01T01:16:59;102298.00;;;17.87;65.02
37852;BME280;23691;52.486;4.650;2022-09-01T01:19:35;102292.78;;;17.85;65.32
37852;BME280;23691;52.486;4.650;2022-09-01T01:22:49;102294.66;;;17.76;65.59
37852;BME280;23691;52.486;4.650;2022-09-01T01:28:25;102296.34;;;17.77;65.67
37852;BME280;23691;52.486;4.650;2022-09-01T01:31:00;102298.38;;;17.75;65.49
37852;BME280;23691;52.486;4.650;2022-09-01T01:33:37;102294.84;;;17.75;65.75
37852;BME280;23691;52.486;4.650;2022-09-01T01:36:08;102304.16;;;17.72;65.42
37852;BME280;23691;52.486;4.650;2022-09-01T01:38:41;102297.56;;;17.67;65.71
37852;BME280;23691;52.486;4.650;2022-09-01T01:41:08;102300.28;;;17.67;66.02
37852;BME280;23691;52.486;4.650;2022-09-01T01:43:35;102294.03;;;17.66;65.65
37852;BME280;23691;52.486;4.650;2022-09-01T01:46:03;102291.31;;;17.66;65.54
37852;BME280;23691;52.486;4.650;2022-09-01T01:48:30;102296.25;;;17.63;65.54
37852;BME280;23691;52.486;4.650;2022-09-01T01:50:59;102290.34;;;17.59;65.86
37852;BME280;23691;52.486;4.650;2022-09-01T01:53:26;102299.28;;;17.59;65.67
37852;BME280;23691;52.486;4.650;2022-09-01T01:55:52;102293.56;;;17.54;65.63
37852;BME280;23691;52.486;4.650;2022-09-01T01:58:20;102303.06;;;17.50;65.77
37852;BME280;23691;52.486;4.650;2022-09-01T02:00:47;102297.97;;;17.47;65.47
37852;BME280;23691;52.486;4.650;2022-09-01T02:03:18;102294.97;;;17.42;65.69
37852;BME280;23691;52.486;4.650;2022-09-01T02:06:06;102292.97;;;17.36;65.85
37852;BME280;23691;52.486;4.650;2022-09-01T02:08:47;102292.66;;;17.31;65.60
37852;BME280;23691;52.486;4.650;2022-09-01T02:11:12;102295.50;;;17.29;65.83
37852;BME280;23691;52.486;4.650;2022-09-01T02:13:41;102288.59;;;17.27;65.93
37852;BME280;23691;52.486;4.650;2022-09-01T02:16:09;102292.34;;;17.26;65.55
37852;BME280;23691;52.486;4.650;2022-09-01T02:18:47;102295.03;;;17.26;65.81
37852;BME280;23691;52.486;4.650;2022-09-01T02:21:14;102293.84;;;17.20;66.17
37852;BME280;23691;52.486;4.650;2022-09-01T02:23:45;102286.09;;;17.17;66.02
37852;BME280;23691;52.486;4.650;2022-09-01T02:26:10;102295.38;;;17.14;66.29
37852;BME280;23691;52.486;4.650;2022-09-01T02:28:38;102300.13;;;17.12;66.24
37852;BME280;23691;52.486;4.650;2022-09-01T02:31:07;102292.34;;;17.09;65.90
37852;BME280;23691;52.486;4.650;2022-09-01T02:33:34;102292.88;;;17.05;66.18
37852;BME280;23691;52.486;4.650;2022-09-01T02:36:03;102291.56;;;17.01;66.20
37852;BME280;23691;52.486;4.650;2022-09-01T02:38:29;102298.31;;;16.97;65.99
37852;BME280;23691;52.486;4.650;2022-09-01T02:40:57;102288.00;;;16.92;65.77
37852;BME280;23691;52.486;4.650;2022-09-01T02:43:24;102287.16;;;16.83;66.17
37852;BME280;23691;52.486;4.650;2022-09-01T02:45:54;102287.34;;;16.82;66.04
37852;BME280;23691;52.486;4.650;2022-09-01T02:48:27;102287.69;;;16.79;66.28
37852;BME280;23691;52.486;4.650;2022-09-01T02:50:58;102284.44;;;16.75;65.92
37852;BME280;23691;52.486;4.650;2022-09-01T02:53:26;102281.25;;;16.71;66.11
37852;BME280;23691;52.486;4.650;2022-09-01T02:55:52;102284.94;;;16.70;65.86
37852;BME280;23691;52.486;4.650;2022-09-01T02:58:18;102290.00;;;16.65;66.47
37852;BME280;23691;52.486;4.650;2022-09-01T03:00:45;102278.03;;;16.60;66.32
37852;BME280;23691;52.486;4.650;2022-09-01T03:03:11;102279.03;;;16.59;66.31
37852;BME280;23691;52.486;4.650;2022-09-01T03:05:43;102281.72;;;16.59;66.32
37852;BME280;23691;52.486;4.650;2022-09-01T03:08:10;102285.63;;;16.56;66.14
37852;BME280;23691;52.486;4.650;2022-09-01T03:10:41;102283.09;;;16.55;66.04
37852;BME280;23691;52.486;4.650;2022-09-01T03:13:11;102279.88;;;16.51;66.01
37852;BME280;23691;52.486;4.650;2022-09-01T03:15:37;102279.38;;;16.47;66.25
37852;BME280;23691;52.486;4.650;2022-09-01T03:18:05;102273.47;;;16.44;66.39
37852;BME280;23691;52.486;4.650;2022-09-01T03:20:33;102279.72;;;16.44;66.50
37852;BME280;23691;52.486;4.650;2022-09-01T03:23:05;102280.38;;;16.46;66.88
37852;BME280;23691;52.486;4.650;2022-09-01T03:25:34;102279.19;;;16.49;66.90
37852;BME280;23691;52.486;4.650;2022-09-01T03:28:00;102279.03;;;16.50;66.57
37852;BME280;23691;52.486;4.650;2022-09-01T03:30:31;102280.91;;;16.50;66.88
37852;BME280;23691;52.486;4.650;2022-09-01T03:32:59;102277.53;;;16.48;66.71
37852;BME280;23691;52.486;4.650;2022-09-01T03:35:26;102279.38;;;16.47;66.55
37852;BME280;23691;52.486;4.650;2022-09-01T03:37:53;102277.69;;;16.46;66.58
37852;BME280;23691;52.486;4.650;2022-09-01T03:40:20;102271.78;;;16.43;66.66
37852;BME280;23691;52.486;4.650;2022-09-01T03:42:45;102267.72;;;16.39;67.08
37852;BME280;23691;52.486;4.650;2022-09-01T03:45:12;102270.09;;;16.42;67.14
37852;BME280;23691;52.486;4.650;2022-09-01T03:47:42;102267.22;;;16.43;67.04
37852;BME280;23691;52.486;4.650;2022-09-01T03:50:12;102265.53;;;16.42;67.33
37852;BME280;23691;52.486;4.650;2022-09-01T03:52:52;102268.94;;;16.44;67.13
37852;BME280;23691;52.486;4.650;2022-09-01T03:55:20;102265.88;;;16.47;67.61
37852;BME280;23691;52.486;4.650;2022-09-01T03:57:56;102266.72;;;16.48;67.32
37852;BME280;23691;52.486;4.650;2022-09-01T04:00:24;102266.72;;;16.48;67.42
37852;BME280;23691;52.486;4.650;2022-09-01T04:02:56;102263.34;;;16.46;67.56
37852;BME280;23691;52.486;4.650;2022-09-01T04:05:26;102257.78;;;16.47;67.55
37852;BME280;23691;52.486;4.650;2022-09-01T04:08:01;102256.94;;;16.47;67.74
37852;BME280;23691;52.486;4.650;2022-09-01T04:10:29;102254.25;;;16.47;67.73
37852;BME280;23691;52.486;4.650;2022-09-01T04:12:57;102257.09;;;16.45;67.84
37852;BME280;23691;52.486;4.650;2022-09-01T04:15:24;102259.78;;;16.45;67.72
37852;BME280;23691;52.486;4.650;2022-09-01T04:17:50;102247.47;;;16.43;67.49
37852;BME280;23691;52.486;4.650;2022-09-01T04:20:38;102260.66;;;16.38;67.82
37852;BME280;23691;52.486;4.650;2022-09-01T04:23:33;102253.56;;;16.37;67.50
37852;BME280;23691;52.486;4.650;2022-09-01T04:26:04;102250.00;;;16.36;67.42
37852;BME280;23691;52.486;4.650;2022-09-01T04:28:38;102251.84;;;16.36;67.41
37852;BME280;23691;52.486;4.650;2022-09-01T04:31:07;102251.69;;;16.37;67.26
37852;BME280;23691;52.486;4.650;2022-09-01T04:33:35;102261.81;;;16.35;67.30
37852;BME280;23691;52.486;4.650;2022-09-01T04:36:04;102262.16;;;16.24;67.92
37852;BME280;23691;52.486;4.650;2022-09-01T04:38:30;102255.22;;;16.21;67.70
37852;BME280;23691;52.486;4.650;2022-09-01T04:41:02;102258.59;;;16.23;67.62
37852;BME280;23691;52.486;4.650;2022-09-01T04:43:28;102257.09;;;16.21;67.56
37852;BME280;23691;52.486;4.650;2022-09-01T04:45:53;102251.84;;;16.19;67.09
37852;BME280;23691;52.486;4.650;2022-09-01T04:48:20;102255.72;;;16.17;67.54
37852;BME280;23691;52.486;4.650;2022-09-01T04:50:47;102253.22;;;16.15;67.34
37852;BME280;23691;52.486;4.650;2022-09-01T04:53:14;102266.03;;;16.05;67.61
37852;BME280;23691;52.486;4.650;2022-09-01T04:55:40;102263.47;;;16.03;67.34
37852;BME280;23691;52.486;4.650;2022-09-01T04:58:11;102253.16;;;15.99;67.74
37852;BME280;23691;52.486;4.650;2022-09-01T05:00:39;102254.19;;;15.98;67.35
37852;BME280;23691;52.486;4.650;2022-09-01T05:03:05;102253.31;;;15.97;67.18
37852;BME280;23691;52.486;4.650;2022-09-01T05:05:42;102247.94;;;15.97;67.57
37852;BME280;23691;52.486;4.650;2022-09-01T05:08:18;102245.75;;;15.93;67.33
37852;BME280;23691;52.486;4.650;2022-09-01T05:10:47;102246.59;;;15.93;67.48
37852;BME280;23691;52.486;4.650;2022-09-01T05:13:15;102252.81;;;15.94;67.39
37852;BME280;23691;52.486;4.650;2022-09-01T05:15:43;102243.06;;;15.93;67.46
37852;BME280;23691;52.486;4.650;2022-09-01T05:18:17;102251.66;;;15.96;67.71
37852;BME280;23691;52.486;4.650;2022-09-01T05:20:51;102245.75;;;16.01;67.44
37852;BME280;23691;52.486;4.650;2022-09-01T05:23:18;102249.28;;;16.01;67.63
37852;BME280;23691;52.486;4.650;2022-09-01T05:25:49;102256.56;;;16.01;68.34
37852;BME280;23691;52.486;4.650;2022-09-01T05:28:16;102258.22;;;16.02;68.39
37852;BME280;23691;52.486;4.650;2022-09-01T05:30:44;102267.69;;;16.06;68.62
37852;BME280;23691;52.486;4.650;2022-09-01T05:33:12;102266.19;;;16.12;68.52
37852;BME280;23691;52.486;4.650;2022-09-01T05:35:41;102266.72;;;16.15;68.36
37852;BME280;23691;52.486;4.650;2022-09-01T05:38:10;102263.50;;;16.20;68.50
37852;BME280;23691;52.486;4.650;2022-09-01T05:40:39;102263.84;;;16.25;68.51
37852;BME280;23691;52.486;4.650;2022-09-01T05:43:06;102258.25;;;16.26;68.34
37852;BME280;23691;52.486;4.650;2022-09-01T05:45:35;102257.41;;;16.26;68.78
37852;BME280;23691;52.486;4.650;2022-09-01T05:48:00;102259.97;;;16.27;68.79
37852;BME280;23691;52.486;4.650;2022-09-01T05:50:27;102263.00;;;16.33;68.81
37852;BME280;23691;52.486;4.650;2022-09-01T05:52:52;102264.03;;;16.40;68.90
37852;BME280;23691;52.486;4.650;2022-09-01T05:55:18;102259.94;;;16.44;68.65
37852;BME280;23691;52.486;4.650;2022-09-01T05:57:43;102265.19;;;16.45;68.71
37852;BME280;23691;52.486;4.650;2022-09-01T06:00:13;102265.53;;;16.50;68.85
37852;BME280;23691;52.486;4.650;2022-09-01T06:02:39;102259.78;;;16.53;68.79
37852;BME280;23691;52.486;4.650;2022-09-01T06:05:07;102265.38;;;16.60;68.57
37852;BME280;23691;52.486;4.650;2022-09-01T06:07:33;102260.28;;;16.65;68.56
37852;BME280;23691;52.486;4.650;2022-09-01T06:10:02;102263.50;;;16.69;68.63
37852;BME280;23691;52.486;4.650;2022-09-01T06:12:28;102264.00;;;16.72;68.63
37852;BME280;23691;52.486;4.650;2022-09-01T06:14:54;102271.09;;;16.73;68.65
37852;BME280;23691;52.486;4.650;2022-09-01T06:17:22;102273.31;;;16.78;68.34
37852;BME280;23691;52.486;4.650;2022-09-01T06:19:52;102275.50;;;16.83;68.34
37852;BME280;23691;52.486;4.650;2022-09-01T06:22:20;102275.84;;;16.88;68.17
37852;BME280;23691;52.486;4.650;2022-09-01T06:24:48;102266.84;;;16.95;68.24
37852;BME280;23691;52.486;4.650;2022-09-01T06:27:15;102266.66;;;17.05;67.87
37852;BME280;23691;52.486;4.650;2022-09-01T06:29:42;102267.50;;;17.14;67.55
37852;BME280;23691;52.486;4.650;2022-09-01T06:32:08;102274.91;;;17.20;67.72
37852;BME280;23691;52.486;4.650;2022-09-01T06:34:38;102270.19;;;17.30;67.13
37852;BME280;23691;52.486;4.650;2022-09-01T06:37:04;102270.50;;;17.35;67.22
37852;BME280;23691;52.486;4.650;2022-09-01T06:39:29;102271.81;;;17.39;66.88
37852;BME280;23691;52.486;4.650;2022-09-01T06:41:56;102270.63;;;17.42;66.75
37852;BME280;23691;52.486;4.650;2022-09-01T06:44:22;102276.69;;;17.52;66.88
37852;BME280;23691;52.486;4.650;2022-09-01T06:46:51;102277.31;;;17.63;66.87
37852;BME280;23691;52.486;4.650;2022-09-01T06:49:17;102275.59;;;17.70;66.39
37852;BME280;23691;52.486;4.650;2022-09-01T06:51:42;102280.94;;;17.78;66.09
37852;BME280;23691;52.486;4.650;2022-09-01T06:54:08;102276.91;;;17.82;66.11
37852;BME280;23691;52.486;4.650;2022-09-01T06:56:39;102276.19;;;17.88;66.32
37852;BME280;23691;52.486;4.650;2022-09-01T06:59:04;102274.81;;;17.92;66.28
37852;BME280;23691;52.486;4.650;2022-09-01T07:01:32;102276.63;;;18.00;66.45
37852;BME280;23691;52.486;4.650;2022-09-01T07:03:58;102273.19;;;18.06;66.26
37852;BME280;23691;52.486;4.650;2022-09-01T07:06:25;102273.84;;;18.08;66.23
37852;BME280;23691;52.486;4.650;2022-09-01T07:08:56;102273.31;;;18.13;66.41
37852;BME280;23691;52.486;4.650;2022-09-01T07:11:28;102279.16;;;18.24;66.37
37852;BME280;23691;52.486;4.650;2022-09-01T07:13:58;102283.81;;;18.39;65.97
37852;BME280;23691;52.486;4.650;2022-09-01T07:16:27;102273.34;;;18.51;65.73
37852;BME280;23691;52.486;4.650;2022-09-01T07:18:55;102279.03;;;18.64;65.54
37852;BME280;23691;52.486;4.650;2022-09-01T07:21:22;102277.72;;;18.75;64.75
37852;BME280;23691;52.486;4.650;2022-09-01T07:23:47;102273.78;;;18.85;64.72
37852;BME280;23691;52.486;4.650;2022-09-01T07:26:13;102277.91;;;18.96;64.42
37852;BME280;23691;52.486;4.650;2022-09-01T07:28:47;102278.94;;;19.10;63.61
37852;BME280;23691;52.486;4.650;2022-09-01T07:31:26;102272.66;;;19.24;62.90
37852;BME280;23691;52.486;4.650;2022-09-01T07:33:55;102283.06;;;19.36;62.24
37852;BME280;23691;52.486;4.650;2022-09-01T07:36:23;102273.78;;;19.45;61.46
37852;BME280;23691;52.486;4.650;2022-09-01T07:38:48;102273.03;;;19.51;60.96
37852;BME280;23691;52.486;4.650;2022-09-01T07:41:19;102270.22;;;19.59;59.77
37852;BME280;23691;52.486;4.650;2022-09-01T07:43:46;102284.16;;;19.71;59.40
37852;BME280;23691;52.486;4.650;2022-09-01T07:46:13;102270.66;;;19.78;58.65
37852;BME280;23691;52.486;4.650;2022-09-01T07:48:39;102277.84;;;19.85;58.19
37852;BME280;23691;52.486;4.650;2022-09-01T07:51:04;102283.81;;;19.95;57.93
37852;BME280;23691;52.486;4.650;2022-09-01T07:53:33;102280.13;;;20.03;57.29
37852;BME280;23691;52.486;4.650;2022-09-01T07:56:05;102280.69;;;20.13;56.70
37852;BME280;23691;52.486;4.650;2022-09-01T07:58:35;102284.56;;;20.26;56.26
37852;BME280;23691;52.486;4.650;2022-09-01T08:01:01;102280.50;;;20.36;55.46
37852;BME280;23691;52.486;4.650;2022-09-01T08:03:30;102271.16;;;20.46;55.12
37852;BME280;23691;52.486;4.650;2022-09-01T08:06:04;102280.50;;;20.58;54.65
37852;BME280;23691;52.486;4.650;2022-09-01T08:08:31;102286.22;;;20.70;54.09
37852;BME280;23691;52.486;4.650;2022-09-01T08:10:57;102277.53;;;20.81;53.73
37852;BME280;23691;52.486;4.650;2022-09-01T08:13:22;102281.41;;;20.93;53.03
37852;BME280;23691;52.486;4.650;2022-09-01T08:15:48;102280.00;;;21.04;53.13
37852;BME280;23691;52.486;4.650;2022-09-01T08:18:13;102279.25;;;21.17;52.52
37852;BME280;23691;52.486;4.650;2022-09-01T08:20:39;102288.31;;;21.24;51.66
37852;BME280;23691;52.486;4.650;2022-09-01T08:23:10;102286.44;;;21.31;51.36
37852;BME280;23691;52.486;4.650;2022-09-01T08:25:37;102280.06;;;21.39;51.11
37852;BME280;23691;52.486;4.650;2022-09-01T08:28:04;102288.88;;;21.48;50.23
37852;BME280;23691;52.486;4.650;2022-09-01T08:30:30;102288.69;;;21.56;49.94
37852;BME280;23691;52.486;4.650;2022-09-01T08:32:59;102281.63;;;21.61;49.39
37852;BME280;23691;52.486;4.650;2022-09-01T08:35:26;102285.00;;;21.70;49.43
37852;BME280;23691;52.486;4.650;2022-09-01T08:37:54;102279.16;;;21.80;48.72
37852;BME280;23691;52.486;4.650;2022-09-01T08:40:20;102279.19;;;21.86;48.53
37852;BME280;23691;52.486;4.650;2022-09-01T08:45:49;102284.66;;;22.00;47.58
37852;BME280;23691;52.486;4.650;2022-09-01T08:48:19;102276.50;;;22.06;47.02
37852;BME280;23691;52.486;4.650;2022-09-01T08:50:49;102278.63;;;22.18;46.81
37852;BME280;23691;52.486;4.650;2022-09-01T08:56:19;102272.19;;;22.39;46.17
37852;BME280;23691;52.486;4.650;2022-09-01T08:58:44;102269.03;;;22.48;46.03
37852;BME280;23691;52.486;4.650;2022-09-01T09:01:44;102272.00;;;22.60;46.34
37852;BME280;23691;52.486;4.650;2022-09-01T09:07:04;102279.09;;;22.88;45.84
37852;BME280;23691;52.486;4.650;2022-09-01T09:09:55;102272.38;;;22.97;45.43
37852;BME280;23691;52.486;4.650;2022-09-01T09:15:13;102264.38;;;23.15;45.21
37852;BME280;23691;52.486;4.650;2022-09-01T09:17:46;102262.03;;;23.26;44.51
37852;BME280;23691;52.486;4.650;2022-09-01T09:20:14;102259.28;;;23.32;44.55
37852;BME280;23691;52.486;4.650;2022-09-01T09:22:41;102263.66;;;23.40;44.26
37852;BME280;23691;52.486;4.650;2022-09-01T09:25:11;102259.00;;;23.47;44.24
37852;BME280;23691;52.486;4.650;2022-09-01T09:27:44;102255.38;;;23.60;44.70
37852;BME280;23691;52.486;4.650;2022-09-01T09:30:14;102255.16;;;23.68;44.12
37852;BME280;23691;52.486;4.650;2022-09-01T09:32:52;102248.19;;;23.72;43.27
37852;BME280;23691;52.486;4.650;2022-09-01T09:35:44;102252.81;;;23.72;42.82
37852;BME280;23691;52.486;4.650;2022-09-01T09:41:07;102261.22;;;23.77;42.42
37852;BME280;23691;52.486;4.650;2022-09-01T09:43:46;102247.16;;;23.80;42.76
37852;BME280;23691;52.486;4.650;2022-09-01T09:48:45;102236.91;;;24.00;42.72
37852;BME280;23691;52.486;4.650;2022-09-01T09:51:21;102238.94;;;24.12;42.13
37852;BME280;23691;52.486;4.650;2022-09-01T09:53:47;102231.31;;;24.20;42.11
37852;BME280;23691;52.486;4.650;2022-09-01T09:56:22;102224.88;;;24.33;41.65
37852;BME280;23691;52.486;4.650;2022-09-01T09:58:51;102234.28;;;24.44;41.57
37852;BME280;23691;52.486;4.650;2022-09-01T10:03:59;102232.69;;;24.61;41.52
37852;BME280;23691;52.486;4.650;2022-09-01T10:09:00;102226.25;;;24.74;41.10
37852;BME280;23691;52.486;4.650;2022-09-01T10:11:36;102222.38;;;24.82;40.89
37852;BME280;23691;52.486;4.650;2022-09-01T10:14:15;102235.13;;;24.88;40.99
37852;BME280;23691;52.486;4.650;2022-09-01T10:16:41;102220.91;;;24.79;40.49
37852;BME280;23691;52.486;4.650;2022-09-01T10:19:11;102218.72;;;24.88;40.38
37852;BME280;23691;52.486;4.650;2022-09-01T10:21:39;102220.91;;;24.98;40.15
37852;BME280;23691;52.486;4.650;2022-09-01T10:26:49;102219.63;;;25.00;39.96
37852;BME280;23691;52.486;4.650;2022-09-01T10:32:24;102220.84;;;25.04;39.70
37852;BME280;23691;52.486;4.650;2022-09-01T10:34:52;102216.09;;;25.18;39.56
37852;BME280;23691;52.486;4.650;2022-09-01T10:37:18;102215.78;;;25.26;40.01
37852;BME280;23691;52.486;4.650;2022-09-01T10:40:16;102216.63;;;25.27;39.78
37852;BME280;23691;52.486;4.650;2022-09-01T10:42:45;102214.97;;;25.26;40.03
37852;BME280;23691;52.486;4.650;2022-09-01T10:45:37;102211.69;;;25.36;39.01
37852;BME280;23691;52.486;4.650;2022-09-01T10:50:46;102206.00;;;25.49;39.09
37852;BME280;23691;52.486;4.650;2022-09-01T10:53:38;102209.41;;;25.63;38.94
37852;BME280;23691;52.486;4.650;2022-09-01T11:01:13;102203.50;;;25.78;38.82
37852;BME280;23691;52.486;4.650;2022-09-01T11:03:49;102190.53;;;25.85;38.78
37852;BME280;23691;52.486;4.650;2022-09-01T11:12:13;102200.84;;;25.89;38.96
37852;BME280;23691;52.486;4.650;2022-09-01T11:15:00;102191.31;;;25.92;38.54
37852;BME280;23691;52.486;4.650;2022-09-01T11:17:35;102190.25;;;26.05;38.31
37852;BME280;23691;52.486;4.650;2022-09-01T11:20:06;102191.34;;;26.16;38.30
37852;BME280;23691;52.486;4.650;2022-09-01T11:30:15;102200.06;;;26.48;38.00
37852;BME280;23691;52.486;4.650;2022-09-01T11:32:45;102192.22;;;26.51;38.00
37852;BME280;23691;52.486;4.650;2022-09-01T11:35:19;102193.03;;;26.52;37.71
37852;BME280;23691;52.486;4.650;2022-09-01T11:37:49;102189.63;;;26.57;37.88
37852;BME280;23691;52.486;4.650;2022-09-01T11:40:23;102183.47;;;26.43;37.15
37852;BME280;23691;52.486;4.650;2022-09-01T11:42:51;102176.31;;;26.30;37.49
37852;BME280;23691;52.486;4.650;2022-09-01T11:45:25;102184.22;;;26.26;37.79
37852;BME280;23691;52.486;4.650;2022-09-01T11:47:55;102189.81;;;26.31;37.24
37852;BME280;23691;52.486;4.650;2022-09-01T11:50:36;102180.16;;;26.29;36.98
37852;BME280;23691;52.486;4.650;2022-09-01T11:53:05;102179.56;;;26.27;37.37
37852;BME280;23691;52.486;4.650;2022-09-01T11:55:34;102188.63;;;26.39;37.30
37852;BME280;23691;52.486;4.650;2022-09-01T11:58:01;102175.03;;;26.44;37.26
37852;BME280;23691;52.486;4.650;2022-09-01T12:00:34;102183.97;;;26.40;36.59
37852;BME280;23691;52.486;4.650;2022-09-01T12:03:04;102178.97;;;26.37;36.01
37852;BME280;23691;52.486;4.650;2022-09-01T12:05:35;102179.31;;;26.52;36.12
37852;BME280;23691;52.486;4.650;2022-09-01T12:08:10;102175.88;;;26.68;36.34
37852;BME280;23691;52.486;4.650;2022-09-01T12:10:38;102171.31;;;26.86;36.28
37852;BME280;23691;52.486;4.650;2022-09-01T12:13:30;102171.88;;;26.99;36.02
37852;BME280;23691;52.486;4.650;2022-09-01T12:16:01;102173.16;;;27.09;35.93
37852;BME280;23691;52.486;4.650;2022-09-01T12:18:33;102165.53;;;27.11;35.71
37852;BME280;23691;52.486;4.650;2022-09-01T12:21:02;102162.78;;;27.23;35.07
37852;BME280;23691;52.486;4.650;2022-09-01T12:23:28;102157.88;;;27.25;35.07
37852;BME280;23691;52.486;4.650;2022-09-01T12:26:00;102156.75;;;27.37;34.89
37852;BME280;23691;52.486;4.650;2022-09-01T12:28:28;102156.09;;;27.47;34.62
37852;BME280;23691;52.486;4.650;2022-09-01T12:31:06;102166.19;;;27.58;34.57
37852;BME280;23691;52.486;4.650;2022-09-01T12:33:36;102151.63;;;27.58;34.17
37852;BME280;23691;52.486;4.650;2022-09-01T12:36:21;102153.63;;;27.62;34.04
37852;BME280;23691;52.486;4.650;2022-09-01T12:38:48;102155.47;;;27.74;33.90
37852;BME280;23691;52.486;4.650;2022-09-01T12:41:31;102151.25;;;27.83;33.82
37852;BME280;23691;52.486;4.650;2022-09-01T12:44:28;102146.19;;;27.92;33.24
37852;BME280;23691;52.486;4.650;2022-09-01T12:46:54;102149.44;;;28.05;33.04
37852;BME280;23691;52.486;4.650;2022-09-01T12:49:33;102147.84;;;28.26;32.87
37852;BME280;23691;52.486;4.650;2022-09-01T12:57:50;102133.91;;;28.33;32.66
37852;BME280;23691;52.486;4.650;2022-09-01T13:02:50;102143.31;;;28.37;32.62
37852;BME280;23691;52.486;4.650;2022-09-01T13:05:30;102142.94;;;28.29;32.69
37852;BME280;23691;52.486;4.650;2022-09-01T13:08:01;102133.66;;;28.18;32.63
37852;BME280;23691;52.486;4.650;2022-09-01T13:10:38;102143.69;;;28.24;32.42
37852;BME280;23691;52.486;4.650;2022-09-01T13:13:07;102140.25;;;28.34;32.59
37852;BME280;23691;52.486;4.650;2022-09-01T13:15:35;102144.59;;;28.46;32.27
37852;BME280;23691;52.486;4.650;2022-09-01T13:18:01;102134.00;;;28.55;32.01
37852;BME280;23691;52.486;4.650;2022-09-01T13:20:26;102129.69;;;28.64;32.26
37852;BME280;23691;52.486;4.650;2022-09-01T13:22:52;102125.28;;;28.63;31.94
37852;BME280;23691;52.486;4.650;2022-09-01T13:25:20;102130.84;;;28.68;32.53
37852;BME280;23691;52.486;4.650;2022-09-01T13:27:46;102120.25;;;28.77;31.96
37852;BME280;23691;52.486;4.650;2022-09-01T13:30:21;102117.59;;;28.65;31.62
37852;BME280;23691;52.486;4.650;2022-09-01T13:32:47;102119.72;;;28.58;31.69
37852;BME280;23691;52.486;4.650;2022-09-01T13:35:16;102112.28;;;28.59;31.54
37852;BME280;23691;52.486;4.650;2022-09-01T13:37:41;102106.25;;;28.62;31.92
37852;BME280;23691;52.486;4.650;2022-09-01T13:40:07;102112.91;;;28.66;32.13
37852;BME280;23691;52.486;4.650;2022-09-01T13:42:38;102106.00;;;28.63;31.85
37852;BME280;23691;52.486;4.650;2022-09-01T13:45:04;102102.16;;;28.64;31.86
37852;BME280;23691;52.486;4.650;2022-09-01T13:47:30;102106.38;;;28.72;32.32
37852;BME280;23691;52.486;4.650;2022-09-01T13:49:56;102102.78;;;28.72;32.02
37852;BME280;23691;52.486;4.650;2022-09-01T13:52:21;102101.09;;;28.65;31.54
37852;BME280;23691;52.486;4.650;2022-09-01T13:54:46;102096.97;;;28.68;31.90
37852;BME280;23691;52.486;4.650;2022-09-01T13:57:12;102085.63;;;28.64;31.96
37852;BME280;23691;52.486;4.650;2022-09-01T13:59:38;102090.06;;;28.65;32.29
37852;BME280;23691;52.486;4.650;2022-09-01T14:02:06;102090.50;;;28.57;31.79
37852;BME280;23691;52.486;4.650;2022-09-01T14:04:34;102100.78;;;28.45;31.70
37852;BME280;23691;52.486;4.650;2022-09-01T14:06:59;102090.13;;;28.32;31.72
37852;BME280;23691;52.486;4.650;2022-09-01T14:09:24;102097.72;;;28.24;31.91